sensor_id;sensor_type;location;lat;lon;timestamp;temperature;humidity
72940;DHT22;61094;51.154;13.570;2023-03-01T00:00:35;-2.90;99.90
72940;DHT22;61094;51.154;13.570;2023-03-01T00:02:37;-2.90;99.90
72940;DHT22;61094;51.154;13.570;2023-03-01T00:04:39;-3.00;99.90
72940;DHT22;61094;51.154;13.570;2023-03-01T00:06:44;-3.00;99.90
72940;DHT22;61094;51.154;13.570;2023-03-01T00:08:46;-3.00;99.90
72940;DHT22;61094;51.154;13.570;2023-03-01T00:10:48;-3.00;99.90
72940;DHT22;61094;51.154;13.570;2023-03-01T00:12:50;-3.10;99.90
72940;DHT22;61094;51.154;13.570;2023-03-01T00:14:51;-3.10;99.90
72940;DHT22;61094;51.154;13.570;2023-03-01T00:16:53;-3.10;99.90
72940;DHT22;61094;51.154;13.570;2023-03-01T00:18:57;-3.10;99.90
72940;DHT22;61094;51.154;13.570;2023-03-01T00:20:59;-3.20;99.90
72940;DHT22;61094;51.154;13.570;2023-03-01T00:23:00;-3.20;99.90
72940;DHT22;61094;51.154;13.570;2023-03-01T00:25:02;-3.20;99.90
72940;DHT22;61094;51.154;13.570;2023-03-01T00:27:05;-3.20;99.90
72940;DHT22;61094;51.154;13.570;2023-03-01T00:29:06;-3.20;99.90
72940;DHT22;61094;51.154;13.570;2023-03-01T00:31:11;-3.30;99.90
72940;DHT22;61094;51.154;13.570;2023-03-01T00:33:13;-3.30;99.90
72940;DHT22;61094;51.154;13.570;2023-03-01T00:35:16;-3.40;99.90
72940;DHT22;61094;51.154;13.570;2023-03-01T00:37:17;-3.40;99.90
72940;DHT22;61094;51.154;13.570;2023-03-01T00:39:19;-3.40;99.90
72940;DHT22;61094;51.154;13.570;2023-03-01T00:41:22;-3.50;99.90
72940;DHT22;61094;51.154;13.570;2023-03-01T00:43:23;-3.50;99.90
72940;DHT22;61094;51.154;13.570;2023-03-01T00:45:25;-3.50;99.90
72940;DHT22;61094;51.154;13.570;2023-03-01T00:47:28;-3.50;99.90
72940;DHT22;61094;51.154;13.570;2023-03-01T00:49:30;-3.50;99.90
72940;DHT22;61094;51.154;13.570;2023-03-01T00:51:33;-3.50;99.90
72940;DHT22;61094;51.154;13.570;2023-03-01T00:53:36;-3.50;99.90
72940;DHT22;61094;51.154;13.570;2023-03-01T00:55:37;-3.50;99.90
72940;DHT22;61094;51.154;13.570;2023-03-01T00:57:40;-3.50;99.90
72940;DHT22;61094;51.154;13.570;2023-03-01T00:59:42;-3.50;99.90
72940;DHT22;61094;51.154;13.570;2023-03-01T01:01:44;-3.50;99.90
72940;DHT22;61094;51.154;13.570;2023-03-01T01:03:47;-3.50;99.90
72940;DHT22;61094;51.154;13.570;2023-03-01T01:05:49;-3.60;99.90
72940;DHT22;61094;51.154;13.570;2023-03-01T01:07:52;-3.60;99.90
72940;DHT22;61094;51.154;13.570;2023-03-01T01:09:54;-3.60;99.90
72940;DHT22;61094;51.154;13.570;2023-03-01T01:11:56;-3.70;99.90
72940;DHT22;61094;51.154;13.570;2023-03-01T01:13:58;-3.70;99.90
72940;DHT22;61094;51.154;13.570;2023-03-01T01:16:00;-3.70;99.90
72940;DHT22;61094;51.154;13.570;2023-03-01T01:18:02;-3.70;99.90
72940;DHT22;61094;51.154;13.570;2023-03-01T01:20:05;-3.70;99.90
72940;DHT22;61094;51.154;13.570;2023-03-01T01:22:07;-3.70;99.90
72940;DHT22;61094;51.154;13.570;2023-03-01T01:24:10;-3.70;99.90
72940;DHT22;61094;51.154;13.570;2023-03-01T01:26:13;-3.70;99.90
72940;DHT22;61094;51.154;13.570;2023-03-01T01:28:15;-3.70;99.90
72940;DHT22;61094;51.154;13.570;2023-03-01T01:30:17;-3.70;99.90
72940;DHT22;61094;51.154;13.570;2023-03-01T01:32:19;-3.70;99.90
72940;DHT22;61094;51.154;13.570;2023-03-01T01:34:21;-3.70;99.90
72940;DHT22;61094;51.154;13.570;2023-03-01T01:36:23;-3.70;99.90
72940;DHT22;61094;51.154;13.570;2023-03-01T01:38:25;-3.60;99.90
72940;DHT22;61094;51.154;13.570;2023-03-01T01:40:28;-3.70;99.90
72940;DHT22;61094;51.154;13.570;2023-03-01T01:42:30;-3.70;99.90
72940;DHT22;61094;51.154;13.570;2023-03-01T01:44:33;-3.80;99.90
72940;DHT22;61094;51.154;13.570;2023-03-01T01:46:37;-3.80;99.90
72940;DHT22;61094;51.154;13.570;2023-03-01T01:48:42;-3.90;99.90
72940;DHT22;61094;51.154;13.570;2023-03-01T01:50:45;-3.90;99.90
72940;DHT22;61094;51.154;13.570;2023-03-01T01:52:50;-3.90;99.90
72940;DHT22;61094;51.154;13.570;2023-03-01T01:54:57;-4.00;99.90
72940;DHT22;61094;51.154;13.570;2023-03-01T01:57:06;-4.00;99.90
72940;DHT22;61094;51.154;13.570;2023-03-01T01:59:09;-4.10;99.90
72940;DHT22;61094;51.154;13.570;2023-03-01T02:01:11;-4.20;99.90
72940;DHT22;61094;51.154;13.570;2023-03-01T02:03:16;-4.20;99.90
72940;DHT22;61094;51.154;13.570;2023-03-01T02:05:24;-4.20;99.90
72940;DHT22;61094;51.154;13.570;2023-03-01T02:07:27;-4.20;99.90
72940;DHT22;61094;51.154;13.570;2023-03-01T02:09:30;-4.20;99.90
72940;DHT22;61094;51.154;13.570;2023-03-01T02:11:32;-4.20;99.90
72940;DHT22;61094;51.154;13.570;2023-03-01T02:13:36;-4.20;99.90
72940;DHT22;61094;51.154;13.570;2023-03-01T02:15:39;-4.20;99.90
72940;DHT22;61094;51.154;13.570;2023-03-01T02:17:41;-4.30;99.90
72940;DHT22;61094;51.154;13.570;2023-03-01T02:19:52;-4.30;99.90
72940;DHT22;61094;51.154;13.570;2023-03-01T02:21:59;-4.30;99.90
72940;DHT22;61094;51.154;13.570;2023-03-01T02:24:10;-4.30;99.90
72940;DHT22;61094;51.154;13.570;2023-03-01T02:26:19;-4.40;99.90
72940;DHT22;61094;51.154;13.570;2023-03-01T02:28:42;-4.40;99.90
72940;DHT22;61094;51.154;13.570;2023-03-01T02:30:47;-4.40;99.90
72940;DHT22;61094;51.154;13.570;2023-03-01T02:33:04;-4.40;99.90
72940;DHT22;61094;51.154;13.570;2023-03-01T02:35:06;-4.40;99.90
72940;DHT22;61094;51.154;13.570;2023-03-01T02:37:11;-4.40;99.90
72940;DHT22;61094;51.154;13.570;2023-03-01T02:39:18;-4.40;99.90
72940;DHT22;61094;51.154;13.570;2023-03-01T02:41:22;-4.40;99.90
72940;DHT22;61094;51.154;13.570;2023-03-01T02:43:27;-4.40;99.90
72940;DHT22;61094;51.154;13.570;2023-03-01T02:45:31;-4.40;99.90
72940;DHT22;61094;51.154;13.570;2023-03-01T02:47:33;-4.50;99.90
72940;DHT22;61094;51.154;13.570;2023-03-01T02:49:37;-4.50;99.90
72940;DHT22;61094;51.154;13.570;2023-03-01T02:51:45;-4.50;99.90
72940;DHT22;61094;51.154;13.570;2023-03-01T02:53:58;-4.50;99.90
72940;DHT22;61094;51.154;13.570;2023-03-01T02:56:04;-4.50;99.90
72940;DHT22;61094;51.154;13.570;2023-03-01T02:58:14;-4.50;99.90
72940;DHT22;61094;51.154;13.570;2023-03-01T03:00:18;-4.60;99.90
72940;DHT22;61094;51.154;13.570;2023-03-01T03:02:25;-4.50;99.90
72940;DHT22;61094;51.154;13.570;2023-03-01T03:04:41;-4.50;99.90
72940;DHT22;61094;51.154;13.570;2023-03-01T03:06:43;-4.50;99.90
72940;DHT22;61094;51.154;13.570;2023-03-01T03:08:44;-4.50;99.90
72940;DHT22;61094;51.154;13.570;2023-03-01T03:10:46;-4.60;99.90
72940;DHT22;61094;51.154;13.570;2023-03-01T03:12:49;-4.60;99.90
72940;DHT22;61094;51.154;13.570;2023-03-01T03:14:51;-4.60;99.90
72940;DHT22;61094;51.154;13.570;2023-03-01T03:16:53;-4.60;99.90
72940;DHT22;61094;51.154;13.570;2023-03-01T03:18:56;-4.60;99.90
72940;DHT22;61094;51.154;13.570;2023-03-01T03:21:08;-4.70;99.90
72940;DHT22;61094;51.154;13.570;2023-03-01T03:23:10;-4.70;99.90
72940;DHT22;61094;51.154;13.570;2023-03-01T03:25:12;-4.70;99.90
72940;DHT22;61094;51.154;13.570;2023-03-01T03:27:14;-4.70;99.90
72940;DHT22;61094;51.154;13.570;2023-03-01T03:29:15;-4.70;99.90
72940;DHT22;61094;51.154;13.570;2023-03-01T03:31:18;-4.80;99.90
72940;DHT22;61094;51.154;13.570;2023-03-01T03:33:19;-4.80;99.90
72940;DHT22;61094;51.154;13.570;2023-03-01T03:35:24;-4.80;99.90
72940;DHT22;61094;51.154;13.570;2023-03-01T03:37:26;-4.80;99.90
72940;DHT22;61094;51.154;13.570;2023-03-01T03:39:45;-4.80;99.90
72940;DHT22;61094;51.154;13.570;2023-03-01T03:41:46;-4.90;99.90
72940;DHT22;61094;51.154;13.570;2023-03-01T03:43:48;-4.90;99.90
72940;DHT22;61094;51.154;13.570;2023-03-01T03:45:51;-4.90;99.90
72940;DHT22;61094;51.154;13.570;2023-03-01T03:47:52;-4.90;99.90
72940;DHT22;61094;51.154;13.570;2023-03-01T03:49:54;-4.90;99.90
72940;DHT22;61094;51.154;13.570;2023-03-01T03:51:57;-4.90;99.90
72940;DHT22;61094;51.154;13.570;2023-03-01T03:53:59;-4.90;99.90
72940;DHT22;61094;51.154;13.570;2023-03-01T03:56:00;-5.00;99.90
72940;DHT22;61094;51.154;13.570;2023-03-01T03:58:02;-5.00;99.90
72940;DHT22;61094;51.154;13.570;2023-03-01T04:00:09;-5.00;99.90
72940;DHT22;61094;51.154;13.570;2023-03-01T04:02:12;-5.10;99.90
72940;DHT22;61094;51.154;13.570;2023-03-01T04:04:22;-5.10;99.90
72940;DHT22;61094;51.154;13.570;2023-03-01T04:06:24;-5.10;99.90
72940;DHT22;61094;51.154;13.570;2023-03-01T04:08:27;-5.20;99.90
72940;DHT22;61094;51.154;13.570;2023-03-01T04:10:31;-5.20;99.90
72940;DHT22;61094;51.154;13.570;2023-03-01T04:12:33;-5.20;99.90
72940;DHT22;61094;51.154;13.570;2023-03-01T04:14:35;-5.20;99.90
72940;DHT22;61094;51.154;13.570;2023-03-01T04:16:36;-5.20;99.90
72940;DHT22;61094;51.154;13.570;2023-03-01T04:18:38;-5.20;99.90
72940;DHT22;61094;51.154;13.570;2023-03-01T04:20:40;-5.20;99.90
72940;DHT22;61094;51.154;13.570;2023-03-01T04:22:43;-5.20;99.90
72940;DHT22;61094;51.154;13.570;2023-03-01T04:24:48;-5.20;99.90
72940;DHT22;61094;51.154;13.570;2023-03-01T04:26:50;-5.20;99.90
72940;DHT22;61094;51.154;13.570;2023-03-01T04:28:51;-5.20;99.90
72940;DHT22;61094;51.154;13.570;2023-03-01T04:30:54;-5.20;99.90
72940;DHT22;61094;51.154;13.570;2023-03-01T04:32:56;-5.20;99.90
72940;DHT22;61094;51.154;13.570;2023-03-01T04:34:57;-5.30;99.90
72940;DHT22;61094;51.154;13.570;2023-03-01T04:36:59;-5.30;99.90
72940;DHT22;61094;51.154;13.570;2023-03-01T04:39:01;-5.30;99.90
72940;DHT22;61094;51.154;13.570;2023-03-01T04:41:15;-5.30;99.90
72940;DHT22;61094;51.154;13.570;2023-03-01T04:43:16;-5.30;99.90
72940;DHT22;61094;51.154;13.570;2023-03-01T04:45:18;-5.40;99.90
72940;DHT22;61094;51.154;13.570;2023-03-01T04:47:20;-5.40;99.90
72940;DHT22;61094;51.154;13.570;2023-03-01T04:49:22;-5.40;99.90
72940;DHT22;61094;51.154;13.570;2023-03-01T04:51:24;-5.40;99.90
72940;DHT22;61094;51.154;13.570;2023-03-01T04:53:26;-5.40;99.90
72940;DHT22;61094;51.154;13.570;2023-03-01T04:55:28;-5.50;99.90
72940;DHT22;61094;51.154;13.570;2023-03-01T04:57:31;-5.50;99.90
72940;DHT22;61094;51.154;13.570;2023-03-01T04:59:33;-5.50;99.90
72940;DHT22;61094;51.154;13.570;2023-03-01T05:01:36;-5.50;99.90
72940;DHT22;61094;51.154;13.570;2023-03-01T05:03:38;-5.50;99.90
72940;DHT22;61094;51.154;13.570;2023-03-01T05:05:40;-5.50;99.90
72940;DHT22;61094;51.154;13.570;2023-03-01T05:07:41;-5.50;99.90
72940;DHT22;61094;51.154;13.570;2023-03-01T05:09:43;-5.50;99.90
72940;DHT22;61094;51.154;13.570;2023-03-01T05:11:46;-5.50;99.90
72940;DHT22;61094;51.154;13.570;2023-03-01T05:13:49;-5.50;99.90
72940;DHT22;61094;51.154;13.570;2023-03-01T05:15:57;-5.50;99.90
72940;DHT22;61094;51.154;13.570;2023-03-01T05:17:59;-5.60;99.90
72940;DHT22;61094;51.154;13.570;2023-03-01T05:20:01;-5.60;99.90
72940;DHT22;61094;51.154;13.570;2023-03-01T05:22:07;-5.60;99.90
72940;DHT22;61094;51.154;13.570;2023-03-01T05:24:09;-5.60;99.90
72940;DHT22;61094;51.154;13.570;2023-03-01T05:26:12;-5.60;99.90
72940;DHT22;61094;51.154;13.570;2023-03-01T05:28:14;-5.60;99.90
72940;DHT22;61094;51.154;13.570;2023-03-01T05:30:20;-5.70;99.90
72940;DHT22;61094;51.154;13.570;2023-03-01T05:32:22;-5.60;99.90
72940;DHT22;61094;51.154;13.570;2023-03-01T05:34:24;-5.70;99.90
72940;DHT22;61094;51.154;13.570;2023-03-01T05:36:26;-5.70;99.90
72940;DHT22;61094;51.154;13.570;2023-03-01T05:38:27;-5.70;99.90
72940;DHT22;61094;51.154;13.570;2023-03-01T05:40:29;-5.70;99.90
72940;DHT22;61094;51.154;13.570;2023-03-01T05:42:31;-5.70;99.90
72940;DHT22;61094;51.154;13.570;2023-03-01T05:44:32;-5.70;99.90
72940;DHT22;61094;51.154;13.570;2023-03-01T05:46:35;-5.70;99.90
72940;DHT22;61094;51.154;13.570;2023-03-01T05:48:37;-5.70;99.90
72940;DHT22;61094;51.154;13.570;2023-03-01T05:50:41;-5.80;99.90
72940;DHT22;61094;51.154;13.570;2023-03-01T05:52:43;-5.70;99.90
72940;DHT22;61094;51.154;13.570;2023-03-01T05:54:44;-5.70;99.90
72940;DHT22;61094;51.154;13.570;2023-03-01T05:56:46;-5.70;99.90
72940;DHT22;61094;51.154;13.570;2023-03-01T05:58:48;-5.70;99.90
72940;DHT22;61094;51.154;13.570;2023-03-01T06:00:50;-5.70;99.90
72940;DHT22;61094;51.154;13.570;2023-03-01T06:02:54;-5.70;99.90
72940;DHT22;61094;51.154;13.570;2023-03-01T06:04:56;-5.70;99.90
72940;DHT22;61094;51.154;13.570;2023-03-01T06:06:58;-5.60;99.90
72940;DHT22;61094;51.154;13.570;2023-03-01T06:09:00;-5.60;99.90
72940;DHT22;61094;51.154;13.570;2023-03-01T06:11:01;-5.60;99.90
72940;DHT22;61094;51.154;13.570;2023-03-01T06:13:03;-5.60;99.90
72940;DHT22;61094;51.154;13.570;2023-03-01T06:15:06;-5.50;99.90
72940;DHT22;61094;51.154;13.570;2023-03-01T06:17:10;-5.50;99.90
72940;DHT22;61094;51.154;13.570;2023-03-01T06:19:13;-5.50;99.90
72940;DHT22;61094;51.154;13.570;2023-03-01T06:21:14;-5.40;99.90
72940;DHT22;61094;51.154;13.570;2023-03-01T06:23:16;-5.30;99.90
72940;DHT22;61094;51.154;13.570;2023-03-01T06:25:20;-5.20;99.90
72940;DHT22;61094;51.154;13.570;2023-03-01T06:27:22;-5.10;99.90
72940;DHT22;61094;51.154;13.570;2023-03-01T06:29:23;-5.10;99.90
72940;DHT22;61094;51.154;13.570;2023-03-01T06:31:25;-5.00;99.90
72940;DHT22;61094;51.154;13.570;2023-03-01T06:33:27;-5.00;99.90
72940;DHT22;61094;51.154;13.570;2023-03-01T06:35:30;-5.00;99.90
72940;DHT22;61094;51.154;13.570;2023-03-01T06:37:32;-5.00;99.90
72940;DHT22;61094;51.154;13.570;2023-03-01T06:39:35;-5.00;99.90
72940;DHT22;61094;51.154;13.570;2023-03-01T06:41:37;-5.00;99.90
72940;DHT22;61094;51.154;13.570;2023-03-01T06:43:38;-5.00;99.90
72940;DHT22;61094;51.154;13.570;2023-03-01T06:45:40;-4.90;99.90
72940;DHT22;61094;51.154;13.570;2023-03-01T06:47:43;-5.00;99.90
72940;DHT22;61094;51.154;13.570;2023-03-01T06:49:45;-4.90;99.90
72940;DHT22;61094;51.154;13.570;2023-03-01T06:51:48;-4.90;99.90
72940;DHT22;61094;51.154;13.570;2023-03-01T06:53:49;-4.90;99.90
72940;DHT22;61094;51.154;13.570;2023-03-01T06:55:54;-4.80;99.90
72940;DHT22;61094;51.154;13.570;2023-03-01T06:57:56;-4.80;99.90
72940;DHT22;61094;51.154;13.570;2023-03-01T06:59:57;-4.80;99.90
72940;DHT22;61094;51.154;13.570;2023-03-01T07:01:59;-4.70;99.90
72940;DHT22;61094;51.154;13.570;2023-03-01T07:04:01;-4.70;99.90
72940;DHT22;61094;51.154;13.570;2023-03-01T07:06:03;-4.60;99.90
72940;DHT22;61094;51.154;13.570;2023-03-01T07:08:06;-4.50;99.90
72940;DHT22;61094;51.154;13.570;2023-03-01T07:10:10;-4.50;99.90
72940;DHT22;61094;51.154;13.570;2023-03-01T07:12:12;-4.40;99.90
72940;DHT22;61094;51.154;13.570;2023-03-01T07:14:13;-4.40;99.90
72940;DHT22;61094;51.154;13.570;2023-03-01T07:16:15;-4.30;99.90
72940;DHT22;61094;51.154;13.570;2023-03-01T07:18:17;-4.30;99.90
72940;DHT22;61094;51.154;13.570;2023-03-01T07:20:19;-4.20;99.90
72940;DHT22;61094;51.154;13.570;2023-03-01T07:22:24;-4.20;99.90
72940;DHT22;61094;51.154;13.570;2023-03-01T07:24:27;-4.10;99.90
72940;DHT22;61094;51.154;13.570;2023-03-01T07:26:29;-4.00;99.90
72940;DHT22;61094;51.154;13.570;2023-03-01T07:28:31;-4.00;99.90
72940;DHT22;61094;51.154;13.570;2023-03-01T07:30:36;-3.90;99.90
72940;DHT22;61094;51.154;13.570;2023-03-01T07:32:37;-3.90;99.90
72940;DHT22;61094;51.154;13.570;2023-03-01T07:34:39;-3.80;99.90
72940;DHT22;61094;51.154;13.570;2023-03-01T07:36:41;-3.70;99.90
72940;DHT22;61094;51.154;13.570;2023-03-01T07:38:43;-3.60;99.90
72940;DHT22;61094;51.154;13.570;2023-03-01T07:40:46;-3.50;99.90
72940;DHT22;61094;51.154;13.570;2023-03-01T07:42:48;-3.50;99.90
72940;DHT22;61094;51.154;13.570;2023-03-01T07:44:49;-3.40;99.90
72940;DHT22;61094;51.154;13.570;2023-03-01T07:46:51;-3.30;99.90
72940;DHT22;61094;51.154;13.570;2023-03-01T07:48:56;-3.20;99.90
72940;DHT22;61094;51.154;13.570;2023-03-01T07:50:58;-3.10;99.90
72940;DHT22;61094;51.154;13.570;2023-03-01T07:53:00;-3.00;99.90
72940;DHT22;61094;51.154;13.570;2023-03-01T07:55:03;-2.90;99.90
72940;DHT22;61094;51.154;13.570;2023-03-01T07:57:06;-2.70;99.90
72940;DHT22;61094;51.154;13.570;2023-03-01T07:59:08;-2.50;99.90
72940;DHT22;61094;51.154;13.570;2023-03-01T08:01:11;-2.40;99.90
72940;DHT22;61094;51.154;13.570;2023-03-01T08:03:13;-2.20;99.90
72940;DHT22;61094;51.154;13.570;2023-03-01T08:05:15;-2.10;99.90
72940;DHT22;61094;51.154;13.570;2023-03-01T08:07:17;-1.90;99.90
72940;DHT22;61094;51.154;13.570;2023-03-01T08:09:19;-1.70;99.90
72940;DHT22;61094;51.154;13.570;2023-03-01T08:11:20;-1.60;99.90
72940;DHT22;61094;51.154;13.570;2023-03-01T08:13:25;-1.40;99.90
72940;DHT22;61094;51.154;13.570;2023-03-01T08:15:26;-1.20;99.90
72940;DHT22;61094;51.154;13.570;2023-03-01T08:17:28;-1.00;99.90
72940;DHT22;61094;51.154;13.570;2023-03-01T08:19:30;-0.80;99.90
72940;DHT22;61094;51.154;13.570;2023-03-01T08:21:32;-0.60;99.90
72940;DHT22;61094;51.154;13.570;2023-03-01T08:23:35;-0.40;99.90
72940;DHT22;61094;51.154;13.570;2023-03-01T08:25:37;-0.20;99.90
72940;DHT22;61094;51.154;13.570;2023-03-01T08:27:38;-0.10;99.90
72940;DHT22;61094;51.154;13.570;2023-03-01T08:29:42;0.10;99.90
72940;DHT22;61094;51.154;13.570;2023-03-01T08:31:43;0.20;99.90
72940;DHT22;61094;51.154;13.570;2023-03-01T08:33:45;0.30;99.90
72940;DHT22;61094;51.154;13.570;2023-03-01T08:35:50;0.50;99.90
72940;DHT22;61094;51.154;13.570;2023-03-01T08:37:52;0.70;99.90
72940;DHT22;61094;51.154;13.570;2023-03-01T08:39:54;1.00;99.90
72940;DHT22;61094;51.154;13.570;2023-03-01T08:41:56;1.20;99.90
72940;DHT22;61094;51.154;13.570;2023-03-01T08:43:58;1.50;99.90
72940;DHT22;61094;51.154;13.570;2023-03-01T08:46:01;1.80;99.90
72940;DHT22;61094;51.154;13.570;2023-03-01T08:48:03;2.10;99.90
72940;DHT22;61094;51.154;13.570;2023-03-01T08:50:06;2.50;99.90
72940;DHT22;61094;51.154;13.570;2023-03-01T08:52:07;2.90;99.90
72940;DHT22;61094;51.154;13.570;2023-03-01T08:54:11;3.30;99.90
72940;DHT22;61094;51.154;13.570;2023-03-01T08:56:14;3.80;99.90
72940;DHT22;61094;51.154;13.570;2023-03-01T08:58:15;4.30;99.90
72940;DHT22;61094;51.154;13.570;2023-03-01T09:00:18;4.70;99.90
72940;DHT22;61094;51.154;13.570;2023-03-01T09:02:21;5.10;99.90
72940;DHT22;61094;51.154;13.570;2023-03-01T09:04:23;5.50;99.90
72940;DHT22;61094;51.154;13.570;2023-03-01T09:06:24;5.60;99.90
72940;DHT22;61094;51.154;13.570;2023-03-01T09:08:26;5.80;99.90
72940;DHT22;61094;51.154;13.570;2023-03-01T09:10:28;6.20;99.90
72940;DHT22;61094;51.154;13.570;2023-03-01T09:12:29;6.50;99.90
72940;DHT22;61094;51.154;13.570;2023-03-01T09:14:31;6.80;99.90
72940;DHT22;61094;51.154;13.570;2023-03-01T09:16:32;7.10;99.90
72940;DHT22;61094;51.154;13.570;2023-03-01T09:18:37;7.40;99.90
72940;DHT22;61094;51.154;13.570;2023-03-01T09:20:39;7.70;99.90
72940;DHT22;61094;51.154;13.570;2023-03-01T09:22:40;7.70;99.90
72940;DHT22;61094;51.154;13.570;2023-03-01T09:24:42;7.80;99.90
72940;DHT22;61094;51.154;13.570;2023-03-01T09:26:44;8.00;99.90
72940;DHT22;61094;51.154;13.570;2023-03-01T09:28:46;8.30;99.90
72940;DHT22;61094;51.154;13.570;2023-03-01T09:30:48;8.50;99.90
72940;DHT22;61094;51.154;13.570;2023-03-01T09:32:50;8.80;99.90
72940;DHT22;61094;51.154;13.570;2023-03-01T09:34:54;9.00;99.70
72940;DHT22;61094;51.154;13.570;2023-03-01T09:37:07;9.20;99.90
72940;DHT22;61094;51.154;13.570;2023-03-01T09:39:09;9.30;91.60
72940;DHT22;61094;51.154;13.570;2023-03-01T09:41:22;9.30;94.20
72940;DHT22;61094;51.154;13.570;2023-03-01T09:43:31;9.50;99.90
72940;DHT22;61094;51.154;13.570;2023-03-01T09:45:37;9.80;96.60
72940;DHT22;61094;51.154;13.570;2023-03-01T09:47:40;10.10;95.20
72940;DHT22;61094;51.154;13.570;2023-03-01T09:49:43;10.20;98.20
72940;DHT22;61094;51.154;13.570;2023-03-01T09:51:55;10.30;84.20
72940;DHT22;61094;51.154;13.570;2023-03-01T09:53:58;10.40;88.70
72940;DHT22;61094;51.154;13.570;2023-03-01T09:56:05;10.40;92.10
72940;DHT22;61094;51.154;13.570;2023-03-01T09:58:32;10.50;64.30
72940;DHT22;61094;51.154;13.570;2023-03-01T10:00:41;10.50;75.70
72940;DHT22;61094;51.154;13.570;2023-03-01T10:02:45;10.50;76.50
72940;DHT22;61094;51.154;13.570;2023-03-01T10:04:50;10.50;71.20
72940;DHT22;61094;51.154;13.570;2023-03-01T10:07:02;10.50;79.70
72940;DHT22;61094;51.154;13.570;2023-03-01T10:09:10;10.50;93.00
72940;DHT22;61094;51.154;13.570;2023-03-01T10:11:20;10.40;69.80
72940;DHT22;61094;51.154;13.570;2023-03-01T10:13:26;10.40;82.20
72940;DHT22;61094;51.154;13.570;2023-03-01T10:15:34;10.40;71.10
72940;DHT22;61094;51.154;13.570;2023-03-01T10:17:39;10.00;56.50
72940;DHT22;61094;51.154;13.570;2023-03-01T10:19:45;9.50;62.20
72940;DHT22;61094;51.154;13.570;2023-03-01T10:21:47;9.40;85.00
72940;DHT22;61094;51.154;13.570;2023-03-01T10:23:52;9.50;93.40
72940;DHT22;61094;51.154;13.570;2023-03-01T10:26:08;9.50;98.00
72940;DHT22;61094;51.154;13.570;2023-03-01T10:28:16;9.70;91.10
72940;DHT22;61094;51.154;13.570;2023-03-01T10:30:21;10.00;80.60
72940;DHT22;61094;51.154;13.570;2023-03-01T10:32:24;10.20;90.90
72940;DHT22;61094;51.154;13.570;2023-03-01T10:34:31;10.40;82.10
72940;DHT22;61094;51.154;13.570;2023-03-01T10:36:33;10.50;76.40
72940;DHT22;61094;51.154;13.570;2023-03-01T10:38:49;10.70;96.10
72940;DHT22;61094;51.154;13.570;2023-03-01T10:40:56;10.80;99.50
72940;DHT22;61094;51.154;13.570;2023-03-01T10:43:01;11.00;99.90
72940;DHT22;61094;51.154;13.570;2023-03-01T10:45:34;11.30;75.30
72940;DHT22;61094;51.154;13.570;2023-03-01T10:47:37;11.20;64.70
72940;DHT22;61094;51.154;13.570;2023-03-01T10:49:38;11.20;90.30
72940;DHT22;61094;51.154;13.570;2023-03-01T10:51:41;11.20;70.70
72940;DHT22;61094;51.154;13.570;2023-03-01T10:53:48;11.30;96.50
72940;DHT22;61094;51.154;13.570;2023-03-01T10:55:59;11.30;75.50
72940;DHT22;61094;51.154;13.570;2023-03-01T10:58:17;11.60;83.70
72940;DHT22;61094;51.154;13.570;2023-03-01T11:00:22;11.90;71.10
72940;DHT22;61094;51.154;13.570;2023-03-01T11:02:28;12.10;89.70
72940;DHT22;61094;51.154;13.570;2023-03-01T11:04:30;12.10;61.70
72940;DHT22;61094;51.154;13.570;2023-03-01T11:06:32;12.00;91.60
72940;DHT22;61094;51.154;13.570;2023-03-01T11:08:40;12.00;95.10
72940;DHT22;61094;51.154;13.570;2023-03-01T11:10:42;11.90;70.70
72940;DHT22;61094;51.154;13.570;2023-03-01T11:12:45;12.00;69.70
72940;DHT22;61094;51.154;13.570;2023-03-01T11:14:48;12.00;80.80
72940;DHT22;61094;51.154;13.570;2023-03-01T11:16:59;12.10;60.30
72940;DHT22;61094;51.154;13.570;2023-03-01T11:19:13;12.20;65.60
72940;DHT22;61094;51.154;13.570;2023-03-01T11:21:15;12.20;78.90
72940;DHT22;61094;51.154;13.570;2023-03-01T11:23:17;12.30;69.40
72940;DHT22;61094;51.154;13.570;2023-03-01T11:25:24;12.40;78.10
72940;DHT22;61094;51.154;13.570;2023-03-01T11:27:28;12.60;60.10
72940;DHT22;61094;51.154;13.570;2023-03-01T11:29:37;12.80;83.30
72940;DHT22;61094;51.154;13.570;2023-03-01T11:31:41;13.00;58.30
72940;DHT22;61094;51.154;13.570;2023-03-01T11:33:47;13.00;50.10
72940;DHT22;61094;51.154;13.570;2023-03-01T11:35:55;13.10;49.10
72940;DHT22;61094;51.154;13.570;2023-03-01T11:38:15;13.20;56.10
72940;DHT22;61094;51.154;13.570;2023-03-01T11:40:23;13.40;61.30
72940;DHT22;61094;51.154;13.570;2023-03-01T11:42:29;13.50;53.10
72940;DHT22;61094;51.154;13.570;2023-03-01T11:44:36;13.50;50.20
72940;DHT22;61094;51.154;13.570;2023-03-01T11:47:03;13.00;46.10
72940;DHT22;61094;51.154;13.570;2023-03-01T11:49:21;12.60;64.00
72940;DHT22;61094;51.154;13.570;2023-03-01T11:51:37;12.20;46.10
72940;DHT22;61094;51.154;13.570;2023-03-01T11:53:58;11.70;45.80
72940;DHT22;61094;51.154;13.570;2023-03-01T11:56:10;11.30;48.00
72940;DHT22;61094;51.154;13.570;2023-03-01T11:58:27;11.30;51.00
72940;DHT22;61094;51.154;13.570;2023-03-01T12:00:49;11.20;49.30
72940;DHT22;61094;51.154;13.570;2023-03-01T12:03:22;11.30;52.50
72940;DHT22;61094;51.154;13.570;2023-03-01T12:05:48;11.30;47.60
72940;DHT22;61094;51.154;13.570;2023-03-01T12:07:57;11.30;45.20
72940;DHT22;61094;51.154;13.570;2023-03-01T12:10:26;11.20;49.70
72940;DHT22;61094;51.154;13.570;2023-03-01T12:12:32;11.00;46.10
72940;DHT22;61094;51.154;13.570;2023-03-01T12:14:55;10.90;43.50
72940;DHT22;61094;51.154;13.570;2023-03-01T12:17:12;10.80;42.50
72940;DHT22;61094;51.154;13.570;2023-03-01T12:19:37;10.50;46.20
72940;DHT22;61094;51.154;13.570;2023-03-01T12:21:50;10.50;47.70
72940;DHT22;61094;51.154;13.570;2023-03-01T12:26:43;10.60;50.80
72940;DHT22;61094;51.154;13.570;2023-03-01T12:28:59;10.70;46.00
72940;DHT22;61094;51.154;13.570;2023-03-01T12:31:27;10.50;44.10
72940;DHT22;61094;51.154;13.570;2023-03-01T12:33:44;10.20;45.70
72940;DHT22;61094;51.154;13.570;2023-03-01T12:36:02;10.20;48.70
72940;DHT22;61094;51.154;13.570;2023-03-01T12:38:18;10.20;47.40
72940;DHT22;61094;51.154;13.570;2023-03-01T12:40:32;10.20;45.70
72940;DHT22;61094;51.154;13.570;2023-03-01T12:42:40;10.10;47.30
72940;DHT22;61094;51.154;13.570;2023-03-01T12:45:01;10.10;48.10
72940;DHT22;61094;51.154;13.570;2023-03-01T12:47:17;10.20;45.70
72940;DHT22;61094;51.154;13.570;2023-03-01T12:49:26;10.20;48.20
72940;DHT22;61094;51.154;13.570;2023-03-01T12:51:30;10.30;46.50
72940;DHT22;61094;51.154;13.570;2023-03-01T12:53:34;10.10;44.70
72940;DHT22;61094;51.154;13.570;2023-03-01T12:55:39;10.00;42.90
72940;DHT22;61094;51.154;13.570;2023-03-01T12:57:45;9.90;47.40
72940;DHT22;61094;51.154;13.570;2023-03-01T13:00:02;9.80;46.60